Latest Weather Observations for Geelong Racecourse

IDV60901

Issued at 2:11 am EST Wednesday 6 May 2015 (issued every 10 minutes, with the page automatically refreshed every 10 minutes)

About weather observations | Map of Melbourne area stations | Latest observations for Melbourne area | Other Formats
Station Details ID: 087184 Name: GEELONG RACECOURSE Lat: -38.17 Lon: 144.38 Height: 12.9 m
Data from the previous 72 hours. | See also: Recent months at Geelong Racecourse
Date/Time
EST
Tmp

°C
App
Tmp
°C
Dew
Point
°C
Rel
Hum
%
Delta-T

°C
Wind Press
QNH
hPa
Press
MSL
hPa
Rain
since
9 am
mm
Dir
 
Spd
km/h
Gust
km/h
Spd
kts
Gust
kts
06/02:00am 11.5 5.3 4.5 62 3.2 NW 26 35 14 19 1009.0 1009.0 0.8
06/01:30am 11.5 6.1 4.3 61 3.2 NW 22 35 12 19 1008.8 1008.8 0.8
06/01:00am 11.4 6.3 4.2 61 3.2 NW 20 30 11 16 1008.7 1008.7 0.8
06/12:30am 11.3 5.9 4.3 62 3.2 NW 22 35 12 19 1008.3 1008.3 0.8
06/12:00am 11.1 6.2 3.9 61 3.2 NW 19 32 10 17 1008.1 1008.1 0.8
 
Date/Time
EST
Tmp

°C
App
Tmp
°C
Dew
Point
°C
Rel
Hum
%
Delta-T

°C
Wind Press
QNH
hPa
Press
MSL
hPa
Rain
since
9 am
mm
Dir
 
Spd
km/h
Gust
km/h
Spd
kts
Gust
kts
05/11:30pm 11.0 5.8 3.5 60 3.3 NW 20 30 11 16 1007.9 1007.9 0.8
05/11:00pm 11.5 6.0 3.8 59 3.4 NW 22 30 12 16 1007.7 1007.7 0.8
05/10:30pm 11.5 5.6 4.0 60 3.4 NW 24 39 13 21 1007.5 1007.5 0.8
05/10:00pm 11.6 6.2 4.3 61 3.3 NW 22 33 12 18 1007.4 1007.4 0.8
05/09:30pm 11.7 5.9 4.4 61 3.3 NW 24 33 13 18 1007.1 1007.1 0.8
05/09:00pm 11.7 5.6 4.7 62 3.2 NW 26 39 14 21 1006.7 1006.7 0.8
05/08:35pm 12.3 4.4 4.5 59 3.5 NW 35 54 19 29 1005.7 1005.7 0.8
05/08:30pm 12.3 4.4 4.5 59 3.5 NW 35 50 19 27 1005.6 1005.6 0.8
05/08:00pm 12.5 4.6 4.5 58 3.7 NW 35 56 19 30 1004.8 1004.8 0.8
05/07:30pm 12.9 5.3 4.1 55 4.0 WNW 33 56 18 30 1004.6 1004.6 0.8
05/07:03pm 13.1 6.5 4.3 55 4.0 NW 28 46 15 25 1004.3 1004.3 0.8
05/07:00pm 13.0 6.8 4.4 56 3.9 NW 26 37 14 20 1004.4 1004.4 0.8
05/06:36pm 13.0 5.7 4.4 56 3.9 NW 32 50 17 27 1004.2 1004.2 0.8
05/06:30pm 13.0 5.5 4.4 56 3.9 NW 33 50 18 27 1004.0 1004.0 0.8
05/06:00pm 13.2 5.9 4.4 55 4.0 NW 32 54 17 29 1003.4 1003.4 0.8
05/05:34pm 13.5 6.2 4.4 54 4.2 NW 32 50 17 27 1002.7 1002.7 0.8
05/05:30pm 13.5 6.2 4.4 54 4.2 NW 32 48 17 26 1002.6 1002.6 0.8
05/05:00pm 13.7 6.1 4.0 52 4.4 WNW 33 65 18 35 1001.9 1001.9 0.8
05/04:36pm 14.5 7.6 4.5 51 4.6 WNW 30 56 16 30 1001.5 1001.5 0.8
05/04:30pm 14.6 8.1 4.9 52 4.5 WNW 28 46 15 25 1001.4 1001.4 0.8
05/04:01pm 14.4 6.9 4.7 52 4.5 WNW 33 52 18 28 1001.0 1001.0 0.8
05/04:00pm 14.4 7.0 5.0 53 4.4 WNW 33 48 18 26 1001.1 1001.1 0.8
05/03:31pm 14.2 6.9 5.3 55 4.2 NW 33 52 18 28 1000.6 1000.6 0.8
05/03:30pm 14.3 6.6 5.4 55 4.2 WNW 35 52 19 28 1000.7 1000.7 0.8
05/03:00pm 14.3 5.7 4.9 53 4.4 WNW 39 57 21 31 999.9 999.9 0.8
05/02:30pm 14.3 6.6 5.4 55 4.2 WNW 35 57 19 31 999.4 999.4 0.8
05/02:00pm 14.1 5.8 6.0 58 3.9 NW 39 65 21 35 999.0 999.0 0.8
05/01:31pm 13.8 6.4 6.9 63 3.3 NW 35 56 19 30 998.4 998.4 0.8
05/01:30pm 13.8 6.4 6.9 63 3.3 NW 35 52 19 28 998.5 998.5 0.8
05/01:05pm 12.1 5.2 6.4 68 2.7 NW 32 50 17 27 998.8 998.8 0.8
05/01:00pm 11.9 5.5 6.8 71 2.4 NW 30 43 16 23 999.0 999.0 0.8
05/12:30pm 10.9 5.1 7.8 81 1.5 NW 28 46 15 25 999.4 999.4 0.8
05/12:01pm 10.9 2.8 7.2 78 1.8 NW 39 67 21 36 999.9 999.9 0.6
05/12:00pm 11.1 3.5 7.4 78 1.8 NW 37 56 20 30 1000.1 1000.1 0.6
05/11:30am 12.6 5.8 6.9 68 2.7 WNW 32 56 17 30 999.3 999.3 0.2
05/11:00am 10.7 3.5 7.6 81 1.5 WNW 35 67 19 36 999.3 999.3 0.2
05/10:52am 13.4 6.5 7.2 66 3.0 WNW 33 67 18 36 999.0 999.0 0.2
05/10:45am 14.4 8.5 7.5 63 3.4 WNW 28 46 15 25 998.2 998.2 0.2
05/10:30am 14.6 9.2 8.1 65 3.2 WNW 26 39 14 21 998.3 998.3 0.2
05/10:00am 14.5 9.4 7.8 64 3.3 WNW 24 41 13 22 998.2 998.2 0.2
05/09:37am 13.5 8.6 10.1 80 1.8 WNW 26 44 14 24 998.5 998.5 0.2
05/09:30am 13.7 9.5 9.9 78 2.0 NW 22 46 12 25 998.3 998.3 0.2
05/09:00am 14.0 9.7 10.8 81 1.7 NW 24 35 13 19 998.5 998.5 -
05/08:30am 13.5 9.6 12.1 91 0.8 NNW 24 39 13 21 998.1 998.1 -
05/08:00am 14.2 11.5 12.9 92 0.7 WNW 19 30 10 16 998.5 998.5 -
05/07:30am 13.7 12.0 12.4 92 0.7 N 13 19 7 10 997.3 997.3 -
05/07:00am 13.7 11.2 12.4 92 0.7 N 17 24 9 13 997.6 997.6 -
05/06:30am 13.4 10.8 12.1 92 0.7 N 17 24 9 13 998.6 998.6 -
05/06:00am 13.5 10.0 12.2 92 0.7 N 22 37 12 20 998.8 998.8 -
05/05:30am 14.3 10.1 11.1 81 1.7 N 24 35 13 19 999.1 999.1 -
05/05:00am 14.5 9.6 11.3 81 1.7 N 28 39 15 21 998.5 998.5 -
05/04:30am 14.4 9.8 11.0 80 1.8 N 26 35 14 19 999.3 999.3 -
05/04:00am 16.1 11.5 9.8 66 3.3 N 24 35 13 19 999.8 999.8 -
05/03:30am 17.2 12.5 9.1 59 4.2 N 24 35 13 19 999.8 999.8 -
05/03:00am 18.4 12.8 7.2 48 5.7 N 26 39 14 21 1000.2 1000.2 0.0
05/02:30am 18.9 11.9 6.7 45 6.1 N 33 48 18 26 999.9 999.9 -
05/02:07am 18.8 12.8 6.9 46 6.0 N 28 46 15 25 1000.0 1000.0 -
05/02:00am 18.8 13.1 6.9 46 6.0 N 26 41 14 22 1000.1 1000.1 -
05/01:30am 18.6 13.0 7.1 47 5.8 NNE 26 43 14 23 1000.9 1000.9 -
05/01:00am 18.6 13.4 7.1 47 5.8 NNE 24 37 13 20 1002.0 1002.0 -
05/12:30am 18.9 12.1 6.7 45 6.1 N 32 44 17 24 1002.7 1002.7 -
05/12:00am 19.2 13.5 6.7 44 6.3 N 26 39 14 21 1003.1 1003.1 -
 
Date/Time
EST
Tmp

°C
App
Tmp
°C
Dew
Point
°C
Rel
Hum
%
Delta-T

°C
Wind Press
QNH
hPa
Press
MSL
hPa
Rain
since
9 am
mm
Dir
 
Spd
km/h
Gust
km/h
Spd
kts
Gust
kts
04/11:30pm 19.8 14.1 6.5 42 6.7 N 26 43 14 23 1003.8 1003.8 -
04/11:00pm 19.5 15.4 6.3 42 6.6 N 17 33 9 18 1004.4 1004.4 -
04/10:30pm 19.3 15.1 5.7 41 6.7 N 17 28 9 15 1005.7 1005.7 -
04/10:00pm 18.4 14.5 7.2 48 5.7 NNE 17 24 9 13 1004.9 1004.9 -
04/09:30pm 18.4 14.1 7.2 48 5.6 NNE 19 30 10 16 1004.0 1004.0 -
04/09:00pm 17.7 14.2 7.4 51 5.2 NE 15 24 8 13 1004.3 1004.3 -
04/08:30pm 17.9 13.7 7.6 51 5.2 NNE 19 28 10 15 1004.7 1004.7 -
04/08:00pm 17.7 14.0 8.0 53 5.0 NNE 17 22 9 12 1005.4 1005.4 -
04/07:30pm 17.6 13.5 7.9 53 4.9 NNE 19 28 10 15 1006.0 1006.0 -
04/07:00pm 18.2 13.5 7.6 50 5.4 NNE 22 32 12 17 1006.1 1006.1 -
04/06:30pm 18.1 15.3 8.4 53 5.0 NNE 13 20 7 11 1006.2 1006.2 -
04/06:00pm 19.7 16.6 7.4 45 6.3 N 13 19 7 10 1007.1 1007.1 -
04/05:30pm 20.4 16.6 7.4 43 6.7 N 17 26 9 14 1007.1 1007.1 -
04/05:00pm 21.3 17.8 7.2 40 7.3 N 15 20 8 11 1007.3 1007.3 -
04/04:30pm 22.0 18.2 7.4 39 7.6 N 17 24 9 13 1007.4 1007.4 0.0
04/04:00pm 22.2 19.0 8.3 41 7.3 N 15 19 8 10 1007.8 1007.8 0.0
04/03:30pm 21.5 19.9 10.3 49 6.1 NNE 9 13 5 7 1008.4 1008.4 0.0
04/03:00pm 21.3 20.0 9.9 48 6.2 NE 7 11 4 6 1008.8 1008.8 0.0
04/02:30pm 20.7 18.6 9.6 49 5.9 NE 11 17 6 9 1008.9 1008.9 0.0
04/02:00pm 20.7 18.7 10.2 51 5.7 NE 11 13 6 7 1009.7 1009.7 0.0
04/01:30pm 20.0 18.0 10.1 53 5.3 NE 11 15 6 8 1010.2 1010.2 0.0
04/01:00pm 19.1 17.1 10.1 56 4.8 ENE 11 15 6 8 1010.9 1010.9 0.0
04/12:30pm 17.9 16.1 11.0 64 3.7 ENE 11 13 6 7 1011.7 1011.7 0.0
04/12:00pm 16.9 16.1 11.6 71 2.9 NE 7 13 4 7 1012.8 1012.8 0.0
04/11:30am 16.2 14.7 11.8 75 2.4 NE 11 17 6 9 1012.9 1012.9 0.0
04/11:00am 15.5 13.8 11.3 76 2.3 NE 11 17 6 9 1013.4 1013.4 0.0
04/10:30am 15.3 14.6 12.1 81 1.7 NE 7 9 4 5 1014.0 1014.0 0.0
04/10:00am 15.6 15.7 13.8 89 1.0 NNE 6 9 3 5 1014.3 1014.3 0.0
04/09:30am 13.6 13.3 12.8 95 0.4 NE 6 9 3 5 1014.9 1014.9 0.0
04/09:00am 11.8 11.4 11.0 95 0.4 ENE 4 6 2 3 1015.0 1015.0 0.0
04/08:30am 9.8 9.6 9.0 95 0.4 CALM 0 2 0 1 1015.4 1015.4 0.0
04/08:00am 9.8 9.6 9.0 95 0.4 CALM 0 2 0 1 1015.2 1015.2 0.0
04/07:30am 8.1 6.3 7.3 95 0.4 NW 6 7 3 4 1015.2 1015.2 0.0
04/07:00am 7.5 5.6 6.8 95 0.3 NW 6 7 3 4 1015.4 1015.4 0.0
04/06:30am 6.9 5.6 6.2 95 0.3 N 2 4 1 2 1015.0 1015.0 0.0
04/06:00am 7.5 6.0 6.8 95 0.3 NW 4 6 2 3 1015.4 1015.4 0.0
04/05:30am 7.8 7.1 6.9 94 0.4 CALM 0 0 0 0 1015.5 1015.5 0.0
04/05:00am 8.1 7.5 7.2 94 0.4 CALM 0 2 0 1 1015.4 1015.4 0.0
04/04:30am 8.6 7.3 7.7 94 0.4 NW 4 6 2 3 1015.6 1015.6 0.0
04/04:00am 8.8 7.2 7.9 94 0.4 NW 6 7 3 4 1015.8 1015.8 0.0
04/03:30am 9.7 8.7 8.8 94 0.4 NW 4 6 2 3 1016.2 1016.2 0.0
04/03:00am 10.4 9.6 9.5 94 0.4 NNW 4 4 2 2 1016.5 1016.5 0.0
04/02:30am 10.6 10.6 9.7 94 0.5 CALM 0 0 0 0 1016.7 1016.7 0.0
04/02:00am 11.0 10.7 10.1 94 0.5 NW 2 2 1 1 1017.0 1017.0 0.0
04/01:30am 10.3 9.4 9.4 94 0.4 NW 4 4 2 2 1017.5 1017.5 0.0
04/01:00am 9.5 8.4 8.6 94 0.4 WNW 4 6 2 3 1017.6 1017.6 0.0
04/12:30am 9.4 9.1 8.5 94 0.4 CALM 0 0 0 0 1017.4 1017.4 0.0
04/12:00am 8.9 8.1 8.0 94 0.4 NW 2 4 1 2 1017.8 1017.8 0.0
 
Date/Time
EST
Tmp

°C
App
Tmp
°C
Dew
Point
°C
Rel
Hum
%
Delta-T

°C
Wind Press
QNH
hPa
Press
MSL
hPa
Rain
since
9 am
mm
Dir
 
Spd
km/h
Gust
km/h
Spd
kts
Gust
kts
03/11:30pm 8.0 6.9 7.1 94 0.4 NNE 2 4 1 2 1017.9 1017.9 0.0
03/11:00pm 8.9 8.1 8.0 94 0.4 NNE 2 6 1 3 1017.8 1017.8 0.0
03/10:30pm 9.1 8.7 8.2 94 0.4 CALM 0 0 0 0 1018.5 1018.5 0.0
03/10:00pm 9.0 8.1 7.9 93 0.5 WSW 2 6 1 3 1018.7 1018.7 0.0
03/09:30pm 9.3 8.5 8.2 93 0.5 SW 2 4 1 2 1018.7 1018.7 0.0
03/09:00pm 9.9 9.6 8.8 93 0.5 CALM 0 0 0 0 1018.7 1018.7 0.0
03/08:30pm 10.5 10.0 9.4 93 0.5 SW 2 2 1 1 1018.7 1018.7 0.0
03/08:00pm 10.4 9.9 9.2 92 0.6 SW 2 4 1 2 1018.9 1018.9 0.0
03/07:30pm 11.3 10.6 10.0 92 0.7 SSW 4 4 2 2 1018.8 1018.8 0.0
03/07:00pm 11.9 11.7 10.5 91 0.7 SW 2 4 1 2 1018.5 1018.5 0.0
03/06:30pm 13.4 12.9 10.6 83 1.5 WNW 4 4 2 2 1018.3 1018.3 0.0
03/06:00pm 14.2 13.9 10.2 77 2.1 WNW 2 4 1 2 1018.1 1018.1 0.0
03/05:30pm 15.3 14.5 10.9 75 2.3 NW 6 6 3 3 1018.2 1018.2 0.0
03/05:00pm 15.9 15.1 11.1 73 2.6 W 6 9 3 5 1018.3 1018.3 0.0
03/04:30pm 16.4 15.4 11.1 71 2.8 W 7 9 4 5 1018.2 1018.2 0.0
03/04:00pm 16.5 15.1 10.8 69 3.0 W 9 13 5 7 1018.3 1018.3 0.0
03/03:30pm 16.8 15.7 10.6 67 3.3 WSW 7 13 4 7 1018.3 1018.3 0.0
03/03:00pm 16.4 16.5 10.3 67 3.2 CALM 0 4 0 2 1018.5 1018.5 0.0
03/02:30pm 16.4 15.8 10.3 67 3.2 NE 4 9 2 5 1018.2 1018.2 0.0
03/02:00pm 16.4 15.5 10.5 68 3.1 NE 6 7 3 4 1018.2 1018.2 0.0
03/01:30pm 16.8 16.2 10.4 66 3.4 ESE 4 6 2 3 1018.3 1018.3 0.0
03/01:00pm 16.9 16.4 10.7 67 3.3 WSW 4 6 2 3 1018.8 1018.8 0.0
03/12:30pm 16.5 15.6 10.8 69 3.0 NW 6 11 3 6 1019.2 1019.2 0.0
03/12:00pm 16.0 15.1 11.2 73 2.6 NW 7 9 4 5 1019.5 1019.5 0.0
03/11:30am 16.1 14.8 11.3 73 2.6 NW 9 13 5 7 1019.8 1019.8 0.0
03/11:00am 15.7 14.6 13.0 84 1.5 WNW 11 15 6 8 1020.1 1020.1 0.0
03/10:30am 15.3 14.9 14.0 92 0.7 NW 9 15 5 8 1020.0 1020.0 0.0
03/10:00am 14.2 13.1 13.1 93 0.6 NW 11 15 6 8 1020.1 1020.1 0.0
03/09:30am 12.7 12.1 11.6 93 0.6 WNW 6 9 3 5 1020.1 1020.1 0.0
03/09:00am 12.2 11.5 11.3 94 0.5 WNW 6 7 3 4 1020.1 1020.1 0.0
03/08:30am 11.6 10.7 10.7 94 0.5 NW 6 7 3 4 1019.8 1019.8 0.0
03/08:00am 10.7 9.6 9.8 94 0.5 NNE 6 7 3 4 1019.6 1019.6 0.0
03/07:30am 8.7 7.4 7.8 94 0.4 NNE 4 4 2 2 1019.4 1019.4 0.0
03/07:00am 8.9 7.3 8.0 94 0.4 N 6 7 3 4 1019.1 1019.1 0.0
03/06:30am 8.5 6.8 7.6 94 0.4 N 6 9 3 5 1018.7 1018.7 0.0
03/06:00am 8.5 7.5 7.4 93 0.5 W 2 2 1 1 1018.5 1018.5 0.0
03/05:30am 8.5 7.1 7.4 93 0.5 NW 4 6 2 3 1018.3 1018.3 0.0
03/05:00am 9.6 8.1 8.5 93 0.5 NNW 6 7 3 4 1018.2 1018.2 0.0
03/04:30am 8.3 6.9 7.2 93 0.5 NNW 4 6 2 3 1017.8 1017.8 0.0
03/04:00am 9.5 9.1 8.4 93 0.5 CALM 0 0 0 0 1017.8 1017.8 0.0
03/03:30am 9.4 8.3 8.3 93 0.5 NW 4 6 2 3 1017.9 1017.9 0.0
03/03:00am 9.3 8.9 8.1 92 0.6 CALM 0 2 0 1 1017.8 1017.8 0.0
03/02:30am 10.2 9.6 9.0 92 0.6 W 2 4 1 2 1017.6 1017.6 0.0

Latest Capital City Observations: Canberra | Sydney | Melbourne | Brisbane | Adelaide | Perth | Hobart | Darwin

Other Formats:

Comma delimited format used in spreadsheet applications
http://www.bom.gov.au/fwo/IDV60901/IDV60901.94857.axf

JavaScript Object Notation format (JSON) in row-major order
http://www.bom.gov.au/fwo/IDV60901/IDV60901.94857.json